createdAt,value
2023-05-13T00:02:07.709Z,15.78
2023-05-13T00:05:09.323Z,15.73
2023-05-13T00:08:11.164Z,15.56
2023-05-13T00:11:12.746Z,15.49
2023-05-13T00:14:14.677Z,15.55
2023-05-13T00:17:16.204Z,15.49
2023-05-13T00:20:17.711Z,15.46
2023-05-13T00:23:19.050Z,15.47
2023-05-13T00:26:21.088Z,15.31
2023-05-13T00:29:23.020Z,15.34
2023-05-13T00:32:24.334Z,15.45
2023-05-13T00:35:25.847Z,15.32
2023-05-13T00:38:27.207Z,15.16
2023-05-13T00:41:28.604Z,15.14
2023-05-13T00:44:30.677Z,15.13
2023-05-13T00:47:33.053Z,15.13
2023-05-13T00:50:34.392Z,15.26
2023-05-13T00:53:37.022Z,15.09
2023-05-13T00:56:38.630Z,15.14
2023-05-13T00:59:40.743Z,15.19
2023-05-13T01:02:50.393Z,15.11
2023-05-13T01:06:00.024Z,15.25
2023-05-13T01:09:07.520Z,15.24
2023-05-13T01:12:12.792Z,15.30
2023-05-13T01:15:20.717Z,15.28
2023-05-13T01:18:28.233Z,15.45
2023-05-13T01:21:35.181Z,15.32
2023-05-13T01:24:36.613Z,15.35
2023-05-13T01:27:38.207Z,15.41
2023-05-13T01:30:39.787Z,15.44
2023-05-13T01:33:42.586Z,15.36
2023-05-13T01:36:44.662Z,15.34
2023-05-13T01:39:47.169Z,15.41
2023-05-13T01:42:48.626Z,15.34
2023-05-13T01:45:49.947Z,15.33
2023-05-13T01:48:51.480Z,15.47
2023-05-13T01:51:53.506Z,15.42
2023-05-13T01:54:54.939Z,15.19
2023-05-13T01:57:56.228Z,15.16
2023-05-13T02:00:57.767Z,15.11
2023-05-13T02:03:59.378Z,15.18
2023-05-13T02:07:01.550Z,15.09
2023-05-13T02:10:03.259Z,15.00
2023-05-13T02:13:04.575Z,14.94
2023-05-13T02:16:06.276Z,14.96
2023-05-13T02:19:07.880Z,15.01
2023-05-13T02:22:09.955Z,14.96
2023-05-13T02:25:11.406Z,14.89
2023-05-13T02:28:12.674Z,14.97
2023-05-13T02:31:14.125Z,14.74
2023-05-13T02:34:15.543Z,14.69
2023-05-13T02:37:17.529Z,14.82
2023-05-13T02:40:19.290Z,14.65
2023-05-13T02:43:20.929Z,14.63
2023-05-13T02:46:22.446Z,14.74
2023-05-13T02:49:23.890Z,14.83
2023-05-13T02:52:25.888Z,14.72
2023-05-13T02:55:27.392Z,14.58
2023-05-13T02:58:28.712Z,14.52
2023-05-13T03:01:30.087Z,14.58
2023-05-13T03:04:31.455Z,14.43
2023-05-13T03:07:34.068Z,14.43
2023-05-13T03:10:35.502Z,14.38
2023-05-13T03:13:36.796Z,14.37
2023-05-13T03:16:38.304Z,14.34
2023-05-13T03:19:39.822Z,14.23
2023-05-13T03:22:42.114Z,14.32
2023-05-13T03:25:43.542Z,14.45
2023-05-13T03:28:44.908Z,14.33
2023-05-13T03:31:46.482Z,14.26
2023-05-13T03:34:47.810Z,14.24
2023-05-13T03:37:49.969Z,14.36
2023-05-13T03:40:51.412Z,14.30
2023-05-13T03:43:52.725Z,14.51
2023-05-13T03:46:54.322Z,14.47
2023-05-13T03:49:55.687Z,14.40
2023-05-13T03:52:57.754Z,14.38
2023-05-13T03:55:59.324Z,14.48
2023-05-13T03:59:00.620Z,14.38
2023-05-13T04:02:02.420Z,14.41
2023-05-13T04:05:05.393Z,14.33
2023-05-13T04:08:07.628Z,14.31
2023-05-13T04:11:09.026Z,14.29
2023-05-13T04:14:10.396Z,14.28
2023-05-13T04:17:12.013Z,14.37
2023-05-13T04:20:13.603Z,14.50
2023-05-13T04:23:15.696Z,14.52
2023-05-13T04:26:17.230Z,14.51
2023-05-13T04:29:18.524Z,14.63
2023-05-13T04:32:21.303Z,14.68
2023-05-13T04:35:22.791Z,14.62
2023-05-13T04:38:24.871Z,14.56
2023-05-13T04:41:26.225Z,14.57
2023-05-13T04:44:27.512Z,15.04
2023-05-13T04:47:28.978Z,15.55
2023-05-13T04:50:31.188Z,15.81
2023-05-13T04:53:34.101Z,16.20
2023-05-13T04:56:35.408Z,16.67
2023-05-13T04:59:36.845Z,16.98
2023-05-13T05:02:39.184Z,17.02
2023-05-13T05:05:40.545Z,17.24
2023-05-13T05:08:43.210Z,17.39
2023-05-13T05:11:44.479Z,17.48
2023-05-13T05:14:45.767Z,17.30
2023-05-13T05:17:47.139Z,17.51
2023-05-13T05:20:48.516Z,17.88
2023-05-13T05:23:50.471Z,18.15
2023-05-13T05:26:51.752Z,18.70
2023-05-13T05:29:53.222Z,18.76
2023-05-13T05:32:54.651Z,19.12
2023-05-13T05:35:55.969Z,19.38
2023-05-13T05:38:57.968Z,19.45
2023-05-13T05:41:59.285Z,19.79
2023-05-13T05:45:00.920Z,20.29
2023-05-13T05:48:02.276Z,20.38
2023-05-13T05:51:04.308Z,20.53
2023-05-13T05:54:06.398Z,20.64
2023-05-13T05:57:07.740Z,21.04
2023-05-13T06:00:10.089Z,21.43
2023-05-13T06:03:11.510Z,21.70
2023-05-13T06:06:13.055Z,21.54
2023-05-13T06:09:14.979Z,21.89
2023-05-13T06:12:16.265Z,21.88
2023-05-13T06:15:17.841Z,22.17
2023-05-13T06:18:19.135Z,22.33
2023-05-13T06:21:20.618Z,22.20
2023-05-13T06:24:22.621Z,22.57
2023-05-13T06:27:24.264Z,22.86
2023-05-13T06:30:25.550Z,22.73
2023-05-13T06:33:26.924Z,22.90
2023-05-13T06:36:28.312Z,23.05
2023-05-13T06:39:30.390Z,23.52
2023-05-13T06:42:31.697Z,23.67
2023-05-13T06:45:33.130Z,23.72
2023-05-13T06:48:34.420Z,23.82
2023-05-13T06:51:35.953Z,23.76
2023-05-13T06:54:37.917Z,24.31
2023-05-13T06:57:43.020Z,24.12
2023-05-13T07:00:45.925Z,24.47
2023-05-13T07:03:48.619Z,24.63
2023-05-13T07:06:50.937Z,24.79
2023-05-13T07:09:52.884Z,25.01
2023-05-13T07:12:54.193Z,24.48
2023-05-13T07:15:55.634Z,24.67
2023-05-13T07:18:57.060Z,25.02
2023-05-13T07:21:58.660Z,25.07
2023-05-13T07:25:00.870Z,25.01
2023-05-13T07:28:02.234Z,25.45
2023-05-13T07:31:04.792Z,25.57
2023-05-13T07:34:06.131Z,25.31
2023-05-13T07:37:07.680Z,25.39
2023-05-13T07:40:10.529Z,25.40
2023-05-13T07:43:13.260Z,25.64
2023-05-13T07:46:15.391Z,25.21
2023-05-13T07:49:16.678Z,25.15
2023-05-13T07:52:18.121Z,25.19
2023-05-13T07:55:20.849Z,25.70
2023-05-13T07:58:22.484Z,25.76
2023-05-13T08:01:23.811Z,26.10
2023-05-13T08:04:25.513Z,26.41
2023-05-13T08:07:28.333Z,26.07
2023-05-13T08:10:30.367Z,26.58
2023-05-13T08:13:31.830Z,26.61
2023-05-13T08:16:34.719Z,26.23
2023-05-13T08:19:36.122Z,25.80
2023-05-13T08:22:37.452Z,25.80
2023-05-13T08:25:39.421Z,26.54
2023-05-13T08:28:42.310Z,26.94
2023-05-13T08:31:45.215Z,26.15
2023-05-13T08:34:46.563Z,26.48
2023-05-13T08:37:48.066Z,26.71
2023-05-13T08:40:50.080Z,26.36
2023-05-13T08:43:53.972Z,26.66
2023-05-13T08:47:04.768Z,26.73
2023-05-13T08:50:06.940Z,27.29
2023-05-13T08:53:11.194Z,27.65
2023-05-13T08:56:13.240Z,27.86
2023-05-13T08:59:14.551Z,27.53
2023-05-13T09:02:16.065Z,27.66
2023-05-13T09:05:18.169Z,27.56
2023-05-13T09:08:19.754Z,26.49
2023-05-13T09:11:22.303Z,26.65
2023-05-13T09:14:30.493Z,26.86
2023-05-13T09:17:32.123Z,26.62
2023-05-13T09:20:34.377Z,26.96
2023-05-13T09:23:35.824Z,27.69
2023-05-13T09:26:38.728Z,27.60
2023-05-13T09:29:40.025Z,27.72
2023-05-13T09:32:42.304Z,27.57
2023-05-13T09:35:48.830Z,27.33
2023-05-13T09:38:52.695Z,27.46
2023-05-13T09:41:54.770Z,27.61
2023-05-13T09:44:56.220Z,27.34
2023-05-13T09:47:57.773Z,27.54
2023-05-13T09:50:59.600Z,28.08
2023-05-13T09:54:06.176Z,28.26
2023-05-13T09:57:08.211Z,27.91
2023-05-13T10:00:17.924Z,27.75
2023-05-13T10:03:22.923Z,28.34
2023-05-13T10:06:25.944Z,28.12
2023-05-13T10:09:28.599Z,28.32
2023-05-13T10:12:31.679Z,28.57
2023-05-13T10:15:33.923Z,28.52
2023-05-13T10:18:35.744Z,27.83
2023-05-13T10:21:38.017Z,27.66
2023-05-13T10:24:39.988Z,28.42
2023-05-13T10:27:42.477Z,28.62
2023-05-13T10:30:44.275Z,28.44
2023-05-13T10:33:45.768Z,28.08
2023-05-13T10:37:02.458Z,28.09
2023-05-13T10:40:22.340Z,27.81
2023-05-13T10:43:27.919Z,28.25
2023-05-13T10:46:29.430Z,28.38
2023-05-13T10:49:33.276Z,28.18
2023-05-13T10:52:47.188Z,28.42
2023-05-13T10:55:52.853Z,28.68
2023-05-13T10:58:59.386Z,28.66
2023-05-13T11:02:03.262Z,29.22
2023-05-13T11:05:05.218Z,29.29
2023-05-13T11:08:06.728Z,29.03
2023-05-13T11:11:32.683Z,28.77
2023-05-13T11:14:34.660Z,28.60
2023-05-13T11:17:36.951Z,28.85
2023-05-13T11:20:51.543Z,28.53
2023-05-13T11:23:57.262Z,28.31
2023-05-13T11:26:59.174Z,27.91
2023-05-13T11:30:06.414Z,28.41
2023-05-13T11:33:11.713Z,28.34
2023-05-13T11:36:13.120Z,28.84
2023-05-13T11:39:15.955Z,28.74
2023-05-13T11:42:17.494Z,28.68
2023-05-13T11:45:23.611Z,28.70
2023-05-13T11:48:25.703Z,28.38
2023-05-13T11:51:27.917Z,28.81
2023-05-13T11:54:29.571Z,28.95
2023-05-13T11:57:31.922Z,29.02
2023-05-13T12:00:34.943Z,28.57
2023-05-13T12:03:36.335Z,28.03
2023-05-13T12:06:44.273Z,28.00
2023-05-13T12:09:45.715Z,27.88
2023-05-13T12:12:47.545Z,28.10
2023-05-13T12:15:49.872Z,28.17
2023-05-13T12:18:56.355Z,27.56
2023-05-13T12:21:59.170Z,27.54
2023-05-13T12:25:02.851Z,27.80
2023-05-13T12:28:08.776Z,27.90
2023-05-13T12:31:16.504Z,27.65
2023-05-13T12:34:30.101Z,27.67
2023-05-13T12:37:31.511Z,27.85
2023-05-13T12:40:32.931Z,27.86
2023-05-13T12:43:34.314Z,27.08
2023-05-13T12:46:36.896Z,27.20
2023-05-13T12:49:51.366Z,27.07
2023-05-13T12:52:53.144Z,26.62
2023-05-13T12:55:54.570Z,25.91
2023-05-13T12:58:56.291Z,26.20
2023-05-13T13:01:58.346Z,26.60
2023-05-13T13:04:59.660Z,26.87
2023-05-13T13:08:01.604Z,26.96
2023-05-13T13:11:03.936Z,26.61
2023-05-13T13:14:05.233Z,26.33
2023-05-13T13:17:07.396Z,26.06
2023-05-13T13:20:09.061Z,26.34
2023-05-13T13:23:10.420Z,26.41
2023-05-13T13:26:11.736Z,26.06
2023-05-13T13:29:13.039Z,26.39
2023-05-13T13:32:15.216Z,26.07
2023-05-13T13:35:16.565Z,26.01
2023-05-13T13:38:17.963Z,25.93
2023-05-13T13:41:19.218Z,26.11
2023-05-13T13:44:20.642Z,26.07
2023-05-13T13:47:22.701Z,25.52
2023-05-13T13:50:24.220Z,25.63
2023-05-13T13:53:25.722Z,25.69
2023-05-13T13:56:27.033Z,26.00
2023-05-13T13:59:28.320Z,25.71
2023-05-13T14:02:30.483Z,26.07
2023-05-13T14:05:31.867Z,25.73
2023-05-13T14:08:33.303Z,25.41
2023-05-13T14:11:34.673Z,25.55
2023-05-13T14:14:35.961Z,25.50
2023-05-13T14:17:38.159Z,25.56
2023-05-13T14:20:39.455Z,25.67
2023-05-13T14:23:41.287Z,25.97
2023-05-13T14:26:42.587Z,25.87
2023-05-13T14:29:45.957Z,25.68
2023-05-13T14:32:48.058Z,25.45
2023-05-13T14:35:49.447Z,25.79
2023-05-13T14:38:50.863Z,25.92
2023-05-13T14:41:52.114Z,25.69
2023-05-13T14:44:53.458Z,25.88
2023-05-13T14:47:56.027Z,25.71
2023-05-13T14:50:57.406Z,25.71
2023-05-13T14:53:58.819Z,25.28
2023-05-13T14:57:00.137Z,25.13
2023-05-13T15:00:01.493Z,24.88
2023-05-13T15:03:03.739Z,24.66
2023-05-13T15:06:06.000Z,24.76
2023-05-13T15:09:07.287Z,24.86
2023-05-13T15:12:09.433Z,24.88
2023-05-13T15:15:11.608Z,25.01
2023-05-13T15:18:13.993Z,24.89
2023-05-13T15:21:15.440Z,25.27
2023-05-13T15:24:16.875Z,25.25
2023-05-13T15:27:18.749Z,25.18
2023-05-13T15:30:20.250Z,25.10
2023-05-13T15:33:22.494Z,24.84
2023-05-13T15:36:23.930Z,24.76
2023-05-13T15:39:25.276Z,24.89
2023-05-13T15:42:26.900Z,24.73
2023-05-13T15:45:28.653Z,24.74
2023-05-13T15:48:30.664Z,24.69
2023-05-13T15:51:32.436Z,24.75
2023-05-13T15:54:33.853Z,24.67
2023-05-13T15:57:35.138Z,24.63
2023-05-13T16:00:36.646Z,24.76
2023-05-13T16:03:38.846Z,24.97
2023-05-13T16:06:40.358Z,24.84
2023-05-13T16:09:41.807Z,24.94
2023-05-13T16:12:43.092Z,24.73
2023-05-13T16:15:44.451Z,24.47
2023-05-13T16:18:46.488Z,24.03
2023-05-13T16:21:47.980Z,23.88
2023-05-13T16:24:49.419Z,23.77
2023-05-13T16:27:50.638Z,23.22
2023-05-13T16:30:54.092Z,22.99
2023-05-13T16:33:56.557Z,22.88
2023-05-13T16:36:59.044Z,22.82
2023-05-13T16:40:00.737Z,22.46
2023-05-13T16:43:03.848Z,22.64
2023-05-13T16:46:05.542Z,22.35
2023-05-13T16:49:07.530Z,22.22
2023-05-13T16:52:08.999Z,22.21
2023-05-13T16:55:10.443Z,22.16
2023-05-13T16:58:14.737Z,22.07
2023-05-13T17:01:16.381Z,21.72
2023-05-13T17:04:19.275Z,21.71
2023-05-13T17:07:20.740Z,21.71
2023-05-13T17:10:22.542Z,21.63
2023-05-13T17:13:24.004Z,21.61
2023-05-13T17:16:25.437Z,21.67
2023-05-13T17:19:28.776Z,21.32
2023-05-13T17:22:30.039Z,21.21
2023-05-13T17:25:31.447Z,21.32
2023-05-13T17:28:33.161Z,21.46
2023-05-13T17:31:34.534Z,21.46
2023-05-13T17:34:36.484Z,21.43
2023-05-13T17:37:37.852Z,21.46
2023-05-13T17:40:39.134Z,21.45
2023-05-13T17:43:40.433Z,21.34
2023-05-13T17:46:41.818Z,21.28
2023-05-13T17:49:43.765Z,21.35
2023-05-13T17:52:45.312Z,21.40
2023-05-13T17:55:47.721Z,21.36
2023-05-13T17:58:48.996Z,21.34
2023-05-13T18:01:50.491Z,21.28
2023-05-13T18:04:52.584Z,21.20
2023-05-13T18:07:53.937Z,20.89
2023-05-13T18:10:55.378Z,20.83
2023-05-13T18:13:56.690Z,20.67
2023-05-13T18:16:58.080Z,20.56
2023-05-13T18:19:59.978Z,20.74
2023-05-13T18:23:01.310Z,20.48
2023-05-13T18:26:02.992Z,20.38
2023-05-13T18:29:04.417Z,20.38
2023-05-13T18:32:06.001Z,20.28
2023-05-13T18:35:08.628Z,20.21
2023-05-13T18:38:09.939Z,20.02
2023-05-13T18:41:11.260Z,20.02
2023-05-13T18:44:12.688Z,19.82
2023-05-13T18:47:14.109Z,19.70
2023-05-13T18:50:16.011Z,19.56
2023-05-13T18:53:17.397Z,19.58
2023-05-13T18:56:18.790Z,19.53
2023-05-13T18:59:20.238Z,19.41
2023-05-13T19:02:21.680Z,19.37
2023-05-13T19:05:23.851Z,19.26
2023-05-13T19:08:25.269Z,19.11
2023-05-13T19:11:26.629Z,19.03
2023-05-13T19:14:28.091Z,18.91
2023-05-13T19:17:30.343Z,18.72
2023-05-13T19:20:32.378Z,18.54
2023-05-13T19:23:33.772Z,18.48
2023-05-13T19:26:35.273Z,18.37
2023-05-13T19:29:36.758Z,18.24
2023-05-13T19:32:38.071Z,18.12
2023-05-13T19:35:40.465Z,17.98
2023-05-13T19:38:41.888Z,17.91
2023-05-13T19:41:43.164Z,17.71
2023-05-13T19:44:45.531Z,17.54
2023-05-13T19:47:47.168Z,17.49
2023-05-13T19:50:52.625Z,17.33
2023-05-13T19:53:54.038Z,17.18
2023-05-13T19:56:55.448Z,17.11
2023-05-13T19:59:58.148Z,17.15
2023-05-13T20:02:59.904Z,16.97
2023-05-13T20:06:02.378Z,16.94
2023-05-13T20:09:04.038Z,16.77
2023-05-13T20:12:05.475Z,16.86
2023-05-13T20:15:07.392Z,16.73
2023-05-13T20:18:08.761Z,16.59
2023-05-13T20:21:10.992Z,16.45
2023-05-13T20:24:12.680Z,16.40
2023-05-13T20:27:15.230Z,16.21
2023-05-13T20:30:16.719Z,16.13
2023-05-13T20:33:17.988Z,16.09
2023-05-13T20:36:20.058Z,15.99
2023-05-13T20:39:21.527Z,15.89
2023-05-13T20:42:23.426Z,15.85
2023-05-13T20:45:25.095Z,15.76
2023-05-13T20:48:27.078Z,15.59
2023-05-13T20:51:29.157Z,15.48
2023-05-13T20:54:30.589Z,15.32
2023-05-13T20:57:31.877Z,15.37
2023-05-13T21:00:33.298Z,15.37
2023-05-13T21:03:34.713Z,15.42
2023-05-13T21:06:36.889Z,15.47
2023-05-13T21:09:38.814Z,15.34
2023-05-13T21:12:40.455Z,15.34
2023-05-13T21:15:41.922Z,15.22
2023-05-13T21:18:43.279Z,15.29
2023-05-13T21:21:45.378Z,15.31
2023-05-13T21:24:46.821Z,15.36
2023-05-13T21:27:48.609Z,15.24
2023-05-13T21:30:50.010Z,14.98
2023-05-13T21:33:51.432Z,14.97
2023-05-13T21:36:53.422Z,15.04
2023-05-13T21:39:54.852Z,14.84
2023-05-13T21:42:56.148Z,14.65
2023-05-13T21:45:57.602Z,14.81
2023-05-13T21:48:59.651Z,15.15
2023-05-13T21:52:01.828Z,15.32
2023-05-13T21:55:03.493Z,15.24
2023-05-13T21:58:04.807Z,15.06
2023-05-13T22:01:06.174Z,15.13
2023-05-13T22:04:07.996Z,15.26
2023-05-13T22:07:10.107Z,15.34
2023-05-13T22:10:11.659Z,15.26
2023-05-13T22:13:13.086Z,15.42
2023-05-13T22:16:14.681Z,15.48
2023-05-13T22:19:16.176Z,15.39
2023-05-13T22:22:18.431Z,14.85
2023-05-13T22:25:20.382Z,14.89
2023-05-13T22:28:21.797Z,14.95
2023-05-13T22:31:23.339Z,14.98
2023-05-13T22:34:25.484Z,15.07
2023-05-13T22:37:27.556Z,15.11
2023-05-13T22:40:29.045Z,15.15
2023-05-13T22:43:30.674Z,15.13
2023-05-13T22:46:32.321Z,15.16
2023-05-13T22:49:33.829Z,15.10
2023-05-13T22:52:35.924Z,15.07
2023-05-13T22:55:37.349Z,14.97
2023-05-13T22:58:38.759Z,14.86
2023-05-13T23:01:40.201Z,15.06
2023-05-13T23:04:41.485Z,14.99
2023-05-13T23:07:43.570Z,14.87
2023-05-13T23:10:44.829Z,15.06
2023-05-13T23:13:46.283Z,15.23
2023-05-13T23:16:47.692Z,15.41
2023-05-13T23:19:48.998Z,15.50
2023-05-13T23:22:51.125Z,15.46
2023-05-13T23:25:52.374Z,15.38
2023-05-13T23:28:53.791Z,15.01
2023-05-13T23:31:55.503Z,14.96
2023-05-13T23:34:56.969Z,14.88
2023-05-13T23:37:59.760Z,14.67
2023-05-13T23:41:01.052Z,14.63
2023-05-13T23:44:02.545Z,14.60
2023-05-13T23:47:04.369Z,14.48
2023-05-13T23:50:07.021Z,14.36
2023-05-13T23:53:09.187Z,14.42
2023-05-13T23:56:10.459Z,14.15
2023-05-13T23:59:11.941Z,14.15
